MiSS Pamela — WDC3060 — position and weather

sailwx.info

Track history (hours):
 
Tides and Currents Weather Stations Pressure Air Temp Water Temp Dewpoint Dewpoint Depression Visibility Wind Speed Wind Dir Waves Ship Positions

MiSS Pamela

Owner: CENTRAL BOAT RENTALS, BERWICK, LA. More information available from US FCC via Universal Licensing System and Coast Guard Vessel Documentation Center.

Last reported at 2017-Oct-20 09:31 UTC. Time now 2017-Oct-22 19:04 UTC.
Position N 29°32' W 090°50'.

Length 7 m; draft 3 m.

Type: Tug. MMSI: 367002130.

Date/timePositionNaut miles runAvg speedWind from/ knotsBaromVisibWave heightAir tempDewpointWater temp
2017-Oct-20 09:31N 29°32' W 090°50'0 8.1
2017-Oct-20 09:31N 29°32' W 090°50'4 7.7
2017-Oct-20 09:01N 29°33' W 090°46'3 5.6
2017-Oct-20 08:31N 29°34' W 090°43'1 1.3
2017-Oct-20 08:01N 29°34' W 090°42'0 0.3
2017-Oct-20 07:31N 29°34' W 090°42'0 0.9
2017-Oct-20 07:01N 29°34' W 090°43'1 2.9
2017-Oct-20 06:31N 29°34' W 090°44'2 4.4
2017-Oct-20 06:01N 29°32' W 090°46'  
Track history (hours):
 
Tides and Currents Weather Stations Pressure Air Temp Water Temp Dewpoint Dewpoint Depression Visibility Wind Speed Wind Dir Waves Ship Positions

MiSS Pamela

Owner: CENTRAL BOAT RENTALS, BERWICK, LA. More information available from US FCC via Universal Licensing System and Coast Guard Vessel Documentation Center.

Last reported at 2017-Oct-20 09:31 UTC. Time now 2017-Oct-22 19:04 UTC.
Position N 29°32' W 090°50'.

Length 7 m; draft 3 m.

Type: Tug. MMSI: 367002130.

Date/timePositionNaut miles runAvg speedWind from/ knotsBaromVisibWave heightAir tempDewpointWater temp
2017-Oct-20 09:31N 29°32' W 090°50'0 8.1
2017-Oct-20 09:31N 29°32' W 090°50'4 7.7
2017-Oct-20 09:01N 29°33' W 090°46'3 5.6
2017-Oct-20 08:31N 29°34' W 090°43'1 1.3
2017-Oct-20 08:01N 29°34' W 090°42'0 0.3
2017-Oct-20 07:31N 29°34' W 090°42'0 0.9
2017-Oct-20 07:01N 29°34' W 090°43'1 2.9
2017-Oct-20 06:31N 29°34' W 090°44'2 4.4
2017-Oct-20 06:01N 29°32' W 090°46'  

Dump ship's entire track history